createdAt,value
2022-08-30T00:00:02.323Z,5.43
2022-08-30T00:02:29.309Z,5.25
2022-08-30T00:04:56.360Z,6.00
2022-08-30T00:07:23.503Z,5.53
2022-08-30T00:09:50.461Z,5.25
2022-08-30T00:12:17.329Z,5.28
2022-08-30T00:14:44.284Z,4.90
2022-08-30T00:17:11.214Z,5.32
2022-08-30T00:19:38.347Z,5.53
2022-08-30T00:22:06.871Z,5.80
2022-08-30T00:24:33.747Z,5.88
2022-08-30T00:27:00.742Z,5.53
2022-08-30T00:29:27.672Z,6.25
2022-08-30T00:31:54.500Z,5.63
2022-08-30T00:34:21.315Z,5.75
2022-08-30T00:36:48.412Z,6.60
2022-08-30T00:39:15.436Z,5.78
2022-08-30T00:41:42.351Z,6.40
2022-08-30T00:44:10.213Z,6.50
2022-08-30T00:46:37.417Z,6.70
2022-08-30T00:49:08.115Z,6.40
2022-08-30T00:51:35.549Z,6.00
2022-08-30T00:54:03.578Z,6.15
2022-08-30T00:56:32.369Z,5.88
2022-08-30T00:59:02.049Z,6.70
2022-08-30T01:01:30.315Z,6.53
2022-08-30T01:04:00.350Z,6.68
2022-08-30T01:06:32.582Z,7.13
2022-08-30T01:09:01.491Z,6.38
2022-08-30T01:11:29.278Z,7.78
2022-08-30T01:13:56.621Z,6.63
2022-08-30T01:16:27.309Z,7.28
2022-08-30T01:18:58.183Z,7.57
2022-08-30T01:21:37.217Z,7.00
2022-08-30T01:24:05.711Z,6.53
2022-08-30T01:26:34.723Z,7.18
2022-08-30T01:29:06.515Z,7.82
2022-08-30T01:31:37.013Z,6.75
2022-08-30T01:34:07.808Z,7.70
2022-08-30T01:36:37.800Z,7.45
2022-08-30T01:39:14.592Z,7.78
2022-08-30T01:41:41.497Z,7.68
2022-08-30T01:44:10.573Z,7.65
2022-08-30T01:46:42.935Z,7.18
2022-08-30T01:49:13.196Z,8.20
2022-08-30T01:51:40.825Z,7.55
2022-08-30T01:54:07.971Z,7.70
2022-08-30T01:56:35.141Z,7.22
2022-08-30T01:59:03.239Z,7.80
2022-08-30T02:01:33.007Z,8.15
2022-08-30T02:04:00.836Z,7.57
2022-08-30T02:06:28.122Z,8.15
2022-08-30T02:08:55.371Z,8.25
2022-08-30T02:11:22.669Z,8.30
2022-08-30T02:13:50.089Z,8.30
2022-08-30T02:16:23.029Z,8.13
2022-08-30T02:18:51.743Z,8.75
2022-08-30T02:21:19.185Z,8.13
2022-08-30T02:23:47.078Z,8.57
2022-08-30T02:26:17.519Z,8.43
2022-08-30T02:28:49.846Z,8.00
2022-08-30T02:31:19.494Z,8.52
2022-08-30T02:33:50.380Z,8.75
2022-08-30T02:36:18.220Z,8.60
2022-08-30T02:38:46.319Z,8.68
2022-08-30T02:41:13.445Z,9.18
2022-08-30T02:43:40.763Z,9.13
2022-08-30T02:46:08.435Z,9.23
2022-08-30T02:48:35.478Z,8.35
2022-08-30T02:51:09.335Z,9.13
2022-08-30T02:53:39.648Z,8.55
2022-08-30T02:56:06.922Z,9.57
2022-08-30T02:58:34.106Z,8.82
2022-08-30T03:01:01.768Z,9.20
2022-08-30T03:03:28.846Z,9.43
2022-08-30T03:05:55.866Z,9.88
2022-08-30T03:08:23.246Z,8.98
2022-08-30T03:10:50.436Z,8.80
2022-08-30T03:13:17.603Z,8.63
2022-08-30T03:15:44.882Z,8.75
2022-08-30T03:18:11.950Z,9.48
2022-08-30T03:20:40.984Z,8.77
2022-08-30T03:23:11.224Z,9.75
2022-08-30T03:25:48.597Z,9.07
2022-08-30T03:28:16.016Z,9.30
2022-08-30T03:30:43.410Z,9.50
2022-08-30T03:33:11.428Z,10.00
2022-08-30T03:35:38.384Z,9.52
2022-08-30T03:38:05.829Z,9.63
2022-08-30T03:40:32.994Z,9.50
2022-08-30T03:43:01.033Z,9.13
2022-08-30T03:45:28.504Z,10.00
2022-08-30T03:47:55.520Z,9.20
2022-08-30T03:50:23.078Z,8.77
2022-08-30T03:52:50.279Z,9.23
2022-08-30T03:55:17.778Z,10.82
2022-08-30T03:57:45.044Z,9.48
2022-08-30T04:00:13.611Z,9.57
2022-08-30T04:02:41.939Z,9.73
2022-08-30T04:05:10.544Z,9.40
2022-08-30T04:07:37.989Z,9.02
2022-08-30T04:10:09.288Z,9.13
2022-08-30T04:12:38.476Z,9.60
2022-08-30T04:15:06.574Z,9.45
2022-08-30T04:17:33.788Z,11.15
2022-08-30T04:20:00.727Z,9.60
2022-08-30T04:22:27.548Z,10.13
2022-08-30T04:24:54.769Z,9.65
2022-08-30T04:27:21.970Z,9.50
2022-08-30T04:29:49.295Z,9.05
2022-08-30T04:32:16.798Z,9.65
2022-08-30T04:34:43.722Z,9.73
2022-08-30T04:37:11.048Z,9.63
2022-08-30T04:39:38.518Z,10.07
2022-08-30T04:42:05.690Z,11.30
2022-08-30T04:44:33.174Z,10.13
2022-08-30T04:47:00.870Z,9.93
2022-08-30T04:49:27.803Z,10.13
2022-08-30T04:51:55.901Z,9.70
2022-08-30T04:54:23.005Z,9.32
2022-08-30T04:56:50.091Z,9.18
2022-08-30T04:59:17.492Z,9.10
2022-08-30T05:01:46.125Z,10.30
2022-08-30T05:04:14.383Z,9.38
2022-08-30T05:06:41.721Z,9.52
2022-08-30T05:09:08.726Z,9.85
2022-08-30T05:11:37.838Z,10.02
2022-08-30T05:14:05.194Z,9.88
2022-08-30T05:16:32.100Z,9.05
2022-08-30T05:19:01.708Z,9.88
2022-08-30T05:21:29.281Z,12.25
2022-08-30T05:24:00.708Z,10.23
2022-08-30T05:26:31.256Z,9.93
2022-08-30T05:28:58.901Z,9.85
2022-08-30T05:31:28.871Z,9.85
2022-08-30T05:33:56.868Z,9.02
2022-08-30T05:36:26.501Z,8.85
2022-08-30T05:38:55.020Z,9.35
2022-08-30T05:41:26.417Z,9.63
2022-08-30T05:43:58.488Z,9.70
2022-08-30T05:46:29.581Z,9.00
2022-08-30T05:48:57.420Z,9.15
2022-08-30T05:51:26.781Z,9.32
2022-08-30T05:53:54.113Z,8.95
2022-08-30T05:56:28.268Z,8.60
2022-08-30T05:58:56.078Z,8.85
2022-08-30T06:01:28.959Z,9.25
2022-08-30T06:04:02.960Z,10.05
2022-08-30T06:06:35.933Z,8.98
2022-08-30T06:09:05.201Z,9.18
2022-08-30T06:11:33.431Z,9.40
2022-08-30T06:14:00.898Z,8.80
2022-08-30T06:16:29.766Z,9.45
2022-08-30T06:18:58.808Z,9.50
2022-08-30T06:21:30.062Z,9.25
2022-08-30T06:23:58.186Z,9.38
2022-08-30T06:26:27.006Z,9.23
2022-08-30T06:28:54.928Z,9.40
2022-08-30T06:31:24.115Z,9.35
2022-08-30T06:33:52.246Z,8.90
2022-08-30T06:36:24.736Z,9.82
2022-08-30T06:38:54.003Z,9.10
2022-08-30T06:41:24.166Z,9.55
2022-08-30T06:43:51.523Z,10.00
2022-08-30T06:46:21.506Z,9.73
2022-08-30T06:48:48.945Z,8.95
2022-08-30T06:51:19.515Z,9.38
2022-08-30T06:53:48.976Z,9.85
2022-08-30T06:56:16.982Z,9.85
2022-08-30T06:58:45.937Z,10.05
2022-08-30T07:01:19.673Z,11.50
2022-08-30T07:03:47.317Z,9.32
2022-08-30T07:06:15.446Z,9.68
2022-08-30T07:08:42.513Z,9.57
2022-08-30T07:11:09.783Z,10.07
2022-08-30T07:13:37.224Z,9.77
2022-08-30T07:16:14.154Z,9.45
2022-08-30T07:18:50.729Z,9.43
2022-08-30T07:21:20.758Z,9.85
2022-08-30T07:23:53.220Z,9.35
2022-08-30T07:26:25.114Z,9.43
2022-08-30T07:28:56.226Z,9.15
2022-08-30T07:31:24.352Z,10.13
2022-08-30T07:33:52.393Z,9.07
2022-08-30T07:36:19.953Z,10.07
2022-08-30T07:38:47.636Z,8.75
2022-08-30T07:41:25.146Z,8.80
2022-08-30T07:43:52.708Z,10.00
2022-08-30T07:46:20.861Z,9.40
2022-08-30T07:48:48.232Z,9.93
2022-08-30T07:51:18.688Z,10.73
2022-08-30T07:53:46.652Z,9.82
2022-08-30T07:56:15.417Z,9.70
2022-08-30T07:58:42.618Z,9.45
2022-08-30T08:01:11.728Z,10.00
2022-08-30T08:03:40.941Z,8.77
2022-08-30T08:06:10.299Z,8.95
2022-08-30T08:08:38.511Z,9.13
2022-08-30T08:11:09.628Z,9.23
2022-08-30T08:13:52.848Z,8.68
2022-08-30T08:16:27.244Z,8.88
2022-08-30T08:18:54.957Z,9.15
2022-08-30T08:21:24.214Z,8.40
2022-08-30T08:23:51.879Z,7.85
2022-08-30T08:26:19.834Z,8.52
2022-08-30T08:28:47.254Z,8.63
2022-08-30T08:31:19.597Z,7.80
2022-08-30T08:33:46.981Z,9.20
2022-08-30T08:36:14.244Z,8.77
2022-08-30T08:38:41.418Z,8.75
2022-08-30T08:41:20.688Z,8.90
2022-08-30T08:43:47.800Z,8.00
2022-08-30T08:46:35.926Z,8.25
2022-08-30T08:49:06.370Z,8.73
2022-08-30T08:51:54.804Z,8.63
2022-08-30T08:54:32.812Z,7.43
2022-08-30T08:57:00.915Z,8.25
2022-08-30T08:59:28.314Z,7.70
2022-08-30T09:01:59.567Z,7.25
2022-08-30T09:04:33.857Z,7.68
2022-08-30T09:07:14.406Z,7.53
2022-08-30T09:09:43.130Z,7.15
2022-08-30T09:12:13.354Z,7.45
2022-08-30T09:14:46.841Z,6.97
2022-08-30T09:17:18.692Z,6.57
2022-08-30T09:20:06.186Z,6.57
2022-08-30T09:22:42.660Z,6.80
2022-08-30T09:25:13.522Z,6.90
2022-08-30T09:27:49.070Z,6.45
2022-08-30T09:30:27.663Z,6.43
2022-08-30T09:32:57.873Z,6.00
2022-08-30T09:35:37.326Z,6.80
2022-08-30T09:38:23.641Z,6.05
2022-08-30T09:40:51.868Z,6.40
2022-08-30T09:43:23.963Z,5.28
2022-08-30T09:46:02.099Z,4.68
2022-08-30T09:48:45.085Z,6.30
2022-08-30T09:51:11.995Z,4.82
2022-08-30T09:54:18.793Z,4.97
2022-08-30T09:57:12.769Z,4.93
2022-08-30T10:00:18.638Z,5.50
2022-08-30T10:03:11.530Z,4.90
2022-08-30T10:06:02.858Z,5.32
2022-08-30T10:08:52.327Z,5.25
2022-08-30T10:11:31.516Z,5.13
2022-08-30T10:14:09.885Z,5.25
2022-08-30T10:17:19.705Z,4.53
2022-08-30T10:19:58.711Z,5.30
2022-08-30T10:22:37.772Z,3.95
2022-08-30T10:25:16.266Z,3.70
2022-08-30T10:28:14.660Z,4.15
2022-08-30T10:31:03.881Z,3.50
2022-08-30T10:33:39.252Z,3.55
2022-08-30T10:36:14.304Z,3.50
2022-08-30T10:38:53.884Z,3.50
2022-08-30T10:41:31.977Z,3.38
2022-08-30T10:44:22.958Z,3.60
2022-08-30T10:47:02.829Z,3.63
2022-08-30T10:49:34.190Z,4.18
2022-08-30T10:52:20.459Z,3.97
2022-08-30T10:54:53.112Z,4.30
2022-08-30T10:57:20.554Z,4.00
2022-08-30T11:00:13.917Z,3.65
2022-08-30T11:03:13.606Z,3.38
2022-08-30T11:05:47.620Z,3.53
2022-08-30T11:08:27.389Z,3.60
2022-08-30T11:11:31.467Z,3.42
2022-08-30T11:14:05.897Z,3.00
2022-08-30T11:16:40.183Z,3.70
2022-08-30T11:19:39.954Z,4.10
2022-08-30T11:22:26.650Z,3.38
2022-08-30T11:25:15.817Z,3.47
2022-08-30T11:27:47.417Z,3.28
2022-08-30T11:30:41.583Z,3.67
2022-08-30T11:33:11.336Z,3.53
2022-08-30T11:35:44.785Z,3.85
2022-08-30T11:38:39.672Z,2.45
2022-08-30T11:41:10.470Z,2.60
2022-08-30T11:43:40.422Z,3.05
2022-08-30T11:46:19.441Z,3.08
2022-08-30T11:48:55.999Z,2.70
2022-08-30T11:52:08.319Z,2.70
2022-08-30T11:55:26.634Z,3.13
2022-08-30T11:58:17.694Z,2.70
2022-08-30T12:00:51.473Z,3.60
2022-08-30T12:03:21.035Z,2.92
2022-08-30T12:05:57.448Z,3.17
2022-08-30T12:08:34.678Z,2.50
2022-08-30T12:11:32.116Z,2.90
2022-08-30T12:14:00.950Z,4.00
2022-08-30T12:16:59.268Z,3.53
2022-08-30T12:19:27.072Z,2.78
2022-08-30T12:21:58.761Z,3.08
2022-08-30T12:24:36.811Z,2.85
2022-08-30T12:27:22.110Z,2.60
2022-08-30T12:30:01.931Z,3.38
2022-08-30T12:32:30.850Z,3.08
2022-08-30T12:35:07.243Z,2.88
2022-08-30T12:37:37.470Z,3.15
2022-08-30T12:40:21.496Z,2.85
2022-08-30T12:42:57.218Z,3.38
2022-08-30T12:45:41.784Z,3.35
2022-08-30T12:48:19.779Z,2.75
2022-08-30T12:50:55.025Z,3.10
2022-08-30T12:53:43.105Z,2.83
2022-08-30T12:56:14.374Z,3.30
2022-08-30T12:58:49.688Z,2.72
2022-08-30T13:01:18.848Z,3.83
2022-08-30T13:04:00.360Z,3.20
2022-08-30T13:06:44.305Z,2.88
2022-08-30T13:09:27.073Z,3.28
2022-08-30T13:11:55.089Z,3.05
2022-08-30T13:14:45.592Z,3.58
2022-08-30T13:17:27.921Z,3.20
2022-08-30T13:19:57.881Z,3.40
2022-08-30T13:22:42.432Z,3.30
2022-08-30T13:25:11.438Z,3.45
2022-08-30T13:27:40.162Z,2.58
2022-08-30T13:30:14.658Z,2.63
2022-08-30T13:32:42.370Z,3.33
2022-08-30T13:35:10.522Z,2.80
2022-08-30T13:37:49.331Z,3.58
2022-08-30T13:40:19.064Z,3.17
2022-08-30T13:42:46.783Z,3.22
2022-08-30T13:48:02.620Z,2.70
2022-08-30T13:50:30.380Z,3.40
2022-08-30T13:52:58.397Z,2.78
2022-08-30T13:55:25.607Z,2.90
2022-08-30T13:57:54.386Z,3.60
2022-08-30T14:00:23.681Z,2.90
2022-08-30T14:02:59.880Z,2.58
2022-08-30T14:11:15.880Z,2.72
2022-08-30T14:16:31.748Z,3.28
2022-08-30T14:19:00.425Z,3.38
2022-08-30T14:21:28.424Z,2.72
2022-08-30T14:23:56.873Z,2.80
2022-08-30T14:26:33.478Z,2.90
2022-08-30T14:29:02.656Z,3.28
2022-08-30T14:31:30.297Z,3.35
2022-08-30T14:34:00.349Z,3.25
2022-08-30T14:36:27.443Z,2.50
2022-08-30T14:38:54.631Z,3.00
2022-08-30T14:41:21.784Z,2.70
2022-08-30T14:43:51.140Z,3.10
2022-08-30T14:46:18.383Z,2.90
2022-08-30T14:48:45.426Z,2.50
2022-08-30T14:51:18.817Z,2.97
2022-08-30T14:53:47.531Z,3.22
2022-08-30T14:56:17.419Z,2.67
2022-08-30T14:58:52.687Z,2.53
2022-08-30T15:01:22.374Z,2.53
2022-08-30T15:03:49.203Z,2.78
2022-08-30T15:06:18.344Z,3.15
2022-08-30T15:08:47.696Z,2.30
2022-08-30T15:11:17.213Z,3.00
2022-08-30T15:13:46.814Z,2.67
2022-08-30T15:16:17.108Z,2.63
2022-08-30T15:18:44.928Z,2.40
2022-08-30T15:21:12.214Z,2.53
2022-08-30T15:23:39.887Z,2.40
2022-08-30T15:26:09.918Z,3.13
2022-08-30T15:28:37.400Z,2.95
2022-08-30T15:31:08.704Z,2.78
2022-08-30T15:33:37.847Z,3.05
2022-08-30T15:36:06.809Z,2.65
2022-08-30T15:38:35.287Z,2.63
2022-08-30T15:41:05.947Z,2.72
2022-08-30T15:43:33.875Z,2.47
2022-08-30T15:46:19.861Z,2.78
2022-08-30T15:48:47.008Z,2.60
2022-08-30T15:51:16.803Z,2.70
2022-08-30T15:53:45.518Z,2.40
2022-08-30T15:56:12.820Z,2.65
2022-08-30T15:58:40.517Z,2.08
2022-08-30T16:01:08.031Z,2.65
2022-08-30T16:03:37.750Z,2.60
2022-08-30T16:06:05.220Z,2.70
2022-08-30T16:08:35.385Z,2.28
2022-08-30T16:11:02.318Z,2.53
2022-08-30T16:13:29.200Z,2.85
2022-08-30T16:16:01.690Z,2.50
2022-08-30T16:18:28.876Z,2.97
2022-08-30T16:21:15.295Z,2.30
2022-08-30T16:23:44.585Z,2.22
2022-08-30T16:26:18.329Z,2.70
2022-08-30T16:28:46.885Z,2.17
2022-08-30T16:31:15.543Z,2.70
2022-08-30T16:33:44.832Z,1.85
2022-08-30T16:36:13.160Z,1.55
2022-08-30T16:38:40.912Z,2.05
2022-08-30T16:41:12.060Z,2.00
2022-08-30T16:43:40.042Z,1.95
2022-08-30T16:46:13.183Z,2.20
2022-08-30T16:48:41.170Z,2.05
2022-08-30T16:51:21.588Z,2.05
2022-08-30T16:53:49.453Z,2.58
2022-08-30T16:56:19.473Z,1.90
2022-08-30T16:58:48.105Z,1.90
2022-08-30T17:01:16.107Z,2.00
2022-08-30T17:04:00.396Z,1.83
2022-08-30T17:06:27.928Z,1.83
2022-08-30T17:08:56.527Z,2.20
2022-08-30T17:11:25.029Z,2.20
2022-08-30T17:13:52.648Z,2.40
2022-08-30T17:16:27.341Z,2.20
2022-08-30T17:18:59.778Z,2.10
2022-08-30T17:21:29.185Z,1.90
2022-08-30T17:24:01.466Z,1.90
2022-08-30T17:26:31.582Z,1.80
2022-08-30T17:28:58.603Z,2.47
2022-08-30T17:31:27.914Z,2.05
2022-08-30T17:34:02.835Z,2.05
2022-08-30T17:36:32.115Z,2.38
2022-08-30T17:38:59.060Z,2.03
2022-08-30T17:41:26.167Z,2.15
2022-08-30T17:43:54.009Z,2.10
2022-08-30T17:46:21.462Z,1.73
2022-08-30T17:48:58.020Z,2.08
2022-08-30T17:51:30.184Z,1.50
2022-08-30T17:54:00.185Z,1.90
2022-08-30T17:56:35.489Z,2.10
2022-08-30T17:59:05.486Z,2.25
2022-08-30T18:01:32.585Z,2.10
2022-08-30T18:04:01.857Z,2.00
2022-08-30T18:06:29.878Z,2.00
2022-08-30T18:08:56.735Z,2.42
2022-08-30T18:11:23.723Z,2.05
2022-08-30T18:13:50.689Z,2.30
2022-08-30T18:16:21.462Z,1.77
2022-08-30T18:18:52.687Z,1.95
2022-08-30T18:21:24.034Z,1.83
2022-08-30T18:23:55.361Z,2.50
2022-08-30T18:26:24.339Z,1.85
2022-08-30T18:28:51.713Z,1.65
2022-08-30T18:31:18.608Z,1.70
2022-08-30T18:33:49.728Z,2.10
2022-08-30T18:36:17.160Z,2.03
2022-08-30T18:38:44.991Z,2.00
2022-08-30T18:41:14.916Z,1.65
2022-08-30T18:43:43.145Z,1.73
2022-08-30T18:46:15.155Z,1.63
2022-08-30T18:48:46.077Z,2.13
2022-08-30T18:51:18.982Z,2.05
2022-08-30T18:53:47.404Z,2.28
2022-08-30T18:56:16.895Z,1.80
2022-08-30T18:58:44.963Z,1.80
2022-08-30T19:01:12.942Z,2.08
2022-08-30T19:03:40.818Z,2.30
2022-08-30T19:06:11.637Z,2.00
2022-08-30T19:08:40.389Z,2.10
2022-08-30T19:11:08.801Z,2.10
2022-08-30T19:13:37.078Z,1.88
2022-08-30T19:16:06.259Z,1.92
2022-08-30T19:18:34.891Z,1.70
2022-08-30T19:21:04.033Z,1.92
2022-08-30T19:23:34.371Z,2.15
2022-08-30T19:26:01.471Z,2.15
2022-08-30T19:28:29.149Z,1.90
2022-08-30T19:30:56.793Z,2.50
2022-08-30T19:33:23.793Z,2.15
2022-08-30T19:35:51.617Z,2.10
2022-08-30T19:38:18.902Z,2.10
2022-08-30T19:40:51.013Z,1.77
2022-08-30T19:43:20.997Z,2.00
2022-08-30T19:45:56.342Z,2.10
2022-08-30T19:48:25.018Z,1.67
2022-08-30T19:50:59.765Z,1.95
2022-08-30T19:53:27.901Z,1.63
2022-08-30T19:55:55.040Z,2.10
2022-08-30T19:58:21.992Z,1.58
2022-08-30T20:00:54.225Z,1.83
2022-08-30T20:03:27.956Z,1.77
2022-08-30T20:05:55.399Z,1.52
2022-08-30T20:08:22.278Z,1.50
2022-08-30T20:10:49.494Z,1.60
2022-08-30T20:13:19.570Z,1.75
2022-08-30T20:15:56.337Z,1.73
2022-08-30T20:18:29.808Z,2.10
2022-08-30T20:20:56.903Z,1.90
2022-08-30T20:23:25.364Z,1.80
2022-08-30T20:25:55.481Z,1.70
2022-08-30T20:28:24.698Z,1.60
2022-08-30T20:30:53.311Z,1.90
2022-08-30T20:33:21.536Z,2.40
2022-08-30T20:35:49.754Z,2.35
2022-08-30T20:38:21.438Z,2.22
2022-08-30T20:40:52.236Z,2.55
2022-08-30T20:43:21.947Z,2.20
2022-08-30T20:45:49.651Z,2.40
2022-08-30T20:48:17.631Z,3.20
2022-08-30T20:50:44.913Z,4.28
2022-08-30T20:53:13.772Z,4.60
2022-08-30T20:55:46.886Z,5.30
2022-08-30T20:58:15.219Z,5.65
2022-08-30T21:00:45.989Z,6.20
2022-08-30T21:03:27.278Z,5.22
2022-08-30T21:05:59.282Z,4.72
2022-08-30T21:08:26.299Z,3.33
2022-08-30T21:10:54.602Z,2.80
2022-08-30T21:13:21.960Z,2.42
2022-08-30T21:16:00.204Z,2.47
2022-08-30T21:18:33.229Z,1.40
2022-08-30T21:21:11.410Z,1.77
2022-08-30T21:23:38.327Z,1.90
2022-08-30T21:26:07.525Z,2.15
2022-08-30T21:28:34.857Z,1.92
2022-08-30T21:31:11.113Z,1.90
2022-08-30T21:33:39.093Z,1.85
2022-08-30T21:36:26.353Z,1.52
2022-08-30T21:38:54.399Z,1.85
2022-08-30T21:41:26.952Z,2.63
2022-08-30T21:43:58.445Z,1.67
2022-08-30T21:46:27.378Z,1.80
2022-08-30T21:48:54.678Z,1.48
2022-08-30T21:51:22.321Z,1.48
2022-08-30T21:53:49.568Z,1.60
2022-08-30T21:56:21.867Z,1.75
2022-08-30T21:58:50.337Z,1.63
2022-08-30T22:01:23.608Z,2.10
2022-08-30T22:03:56.100Z,1.50
2022-08-30T22:06:28.024Z,1.80
2022-08-30T22:08:58.215Z,1.55
2022-08-30T22:11:27.575Z,2.08
2022-08-30T22:13:55.250Z,1.70
2022-08-30T22:16:23.016Z,1.75
2022-08-30T22:18:51.229Z,1.67
2022-08-30T22:21:22.703Z,1.45
2022-08-30T22:23:50.049Z,2.10
2022-08-30T22:26:19.533Z,1.88
2022-08-30T22:28:46.646Z,1.58
2022-08-30T22:31:15.709Z,1.60
2022-08-30T22:33:43.323Z,1.45
2022-08-30T22:36:17.005Z,1.70
2022-08-30T22:38:44.242Z,1.83
2022-08-30T22:41:17.205Z,1.40
2022-08-30T22:43:44.833Z,1.80
2022-08-30T22:46:12.913Z,2.10
2022-08-30T22:48:42.440Z,2.28
2022-08-30T22:51:10.054Z,1.80
2022-08-30T22:53:37.496Z,1.83
2022-08-30T22:56:10.475Z,2.00
2022-08-30T22:58:37.731Z,1.90
2022-08-30T23:01:05.922Z,1.73
2022-08-30T23:03:35.301Z,1.88
2022-08-30T23:06:03.316Z,1.67
2022-08-30T23:08:30.341Z,1.73
2022-08-30T23:10:58.099Z,1.67
2022-08-30T23:13:26.059Z,1.90
2022-08-30T23:15:53.276Z,1.83
2022-08-30T23:18:20.507Z,2.25
2022-08-30T23:20:47.432Z,1.88
2022-08-30T23:23:32.704Z,1.80
2022-08-30T23:26:19.705Z,1.90
2022-08-30T23:29:05.021Z,1.83
2022-08-30T23:31:50.577Z,2.03
2022-08-30T23:34:36.149Z,2.13
2022-08-30T23:37:21.475Z,1.67
2022-08-30T23:40:07.177Z,1.80
2022-08-30T23:42:52.597Z,2.10
2022-08-30T23:45:38.325Z,2.10
2022-08-30T23:48:23.783Z,1.95
2022-08-30T23:51:09.126Z,1.98
2022-08-30T23:53:54.759Z,2.58
2022-08-30T23:56:39.944Z,2.15
2022-08-30T23:59:25.794Z,1.88
